createdAt,value
2022-07-27T00:00:55.981Z,2.83
2022-07-27T00:03:23.528Z,2.72
2022-07-27T00:05:50.969Z,3.65
2022-07-27T00:08:20.580Z,2.80
2022-07-27T00:10:48.251Z,2.55
2022-07-27T00:13:15.647Z,2.90
2022-07-27T00:15:42.677Z,2.80
2022-07-27T00:18:09.693Z,2.47
2022-07-27T00:20:37.551Z,2.85
2022-07-27T00:23:04.443Z,3.03
2022-07-27T00:25:31.533Z,2.60
2022-07-27T00:27:58.521Z,3.50
2022-07-27T00:30:26.068Z,2.67
2022-07-27T00:32:53.313Z,2.83
2022-07-27T00:35:20.311Z,3.17
2022-07-27T00:37:47.262Z,2.63
2022-07-27T00:40:14.322Z,2.60
2022-07-27T00:45:45.385Z,3.22
2022-07-27T00:48:12.467Z,2.38
2022-07-27T00:50:42.066Z,2.35
2022-07-27T00:53:10.141Z,2.83
2022-07-27T00:55:39.386Z,2.50
2022-07-27T00:58:08.802Z,2.53
2022-07-27T01:00:38.055Z,1.92
2022-07-27T01:03:09.594Z,2.67
2022-07-27T01:05:42.405Z,2.00
2022-07-27T01:08:12.826Z,4.78
2022-07-27T01:10:40.942Z,2.83
2022-07-27T01:13:12.488Z,2.47
2022-07-27T01:15:41.315Z,2.88
2022-07-27T01:18:27.218Z,3.40
2022-07-27T01:20:55.455Z,2.40
2022-07-27T01:23:26.097Z,2.75
2022-07-27T01:25:53.649Z,2.08
2022-07-27T01:28:21.283Z,1.95
2022-07-27T01:30:48.233Z,2.40
2022-07-27T01:33:15.131Z,2.45
2022-07-27T01:35:42.039Z,2.70
2022-07-27T01:38:11.588Z,2.38
2022-07-27T01:40:39.915Z,2.45
2022-07-27T01:43:07.236Z,2.35
2022-07-27T01:45:34.353Z,2.67
2022-07-27T01:48:01.732Z,2.08
2022-07-27T01:50:28.892Z,2.33
2022-07-27T01:52:55.768Z,3.08
2022-07-27T01:55:22.761Z,2.65
2022-07-27T01:57:49.675Z,2.65
2022-07-27T02:00:16.792Z,2.50
2022-07-27T02:02:43.665Z,2.80
2022-07-27T02:05:14.260Z,2.80
2022-07-27T02:07:41.717Z,2.65
2022-07-27T02:10:10.585Z,2.38
2022-07-27T02:12:38.273Z,2.30
2022-07-27T02:15:14.893Z,1.92
2022-07-27T02:17:46.003Z,2.70
2022-07-27T02:20:15.413Z,2.35
2022-07-27T02:22:43.057Z,2.70
2022-07-27T02:25:11.789Z,2.83
2022-07-27T02:27:40.379Z,3.20
2022-07-27T02:30:08.930Z,2.45
2022-07-27T02:32:35.868Z,2.30
2022-07-27T02:35:03.169Z,2.25
2022-07-27T02:40:17.458Z,2.40
2022-07-27T02:42:45.807Z,2.58
2022-07-27T02:45:13.018Z,2.00
2022-07-27T02:47:40.295Z,2.80
2022-07-27T02:50:08.485Z,2.20
2022-07-27T02:52:35.686Z,2.42
2022-07-27T03:12:46.671Z,4.82
2022-07-27T03:15:13.639Z,4.57
2022-07-27T03:17:40.864Z,4.63
2022-07-27T03:20:09.442Z,4.43
2022-07-27T03:22:37.861Z,4.50
2022-07-27T03:25:05.282Z,3.85
2022-07-27T03:27:32.132Z,4.20
2022-07-27T03:29:59.002Z,3.70
2022-07-27T03:32:25.921Z,4.13
2022-07-27T03:34:53.202Z,3.67
2022-07-27T03:37:20.224Z,4.20
2022-07-27T03:39:47.193Z,3.90
2022-07-27T03:42:14.495Z,3.72
2022-07-27T03:44:41.439Z,3.42
2022-07-27T03:47:08.398Z,3.65
2022-07-27T03:49:35.456Z,3.75
2022-07-27T03:52:02.394Z,3.20
2022-07-27T03:54:29.297Z,4.05
2022-07-27T03:56:56.245Z,3.45
2022-07-27T03:59:23.193Z,3.25
2022-07-27T04:01:50.239Z,3.53
2022-07-27T04:04:17.184Z,3.85
2022-07-27T04:06:44.029Z,4.15
2022-07-27T04:09:11.362Z,4.47
2022-07-27T04:11:43.773Z,3.35
2022-07-27T04:14:19.273Z,3.60
2022-07-27T04:16:47.176Z,3.47
2022-07-27T04:19:14.350Z,3.85
2022-07-27T04:21:41.364Z,4.45
2022-07-27T04:24:08.559Z,4.28
2022-07-27T04:26:35.487Z,4.22
2022-07-27T04:29:02.399Z,4.25
2022-07-27T04:31:29.431Z,4.85
2022-07-27T04:33:56.350Z,4.75
2022-07-27T04:36:23.423Z,5.57
2022-07-27T04:38:50.284Z,5.63
2022-07-27T04:41:17.618Z,4.95
2022-07-27T04:43:44.523Z,4.47
2022-07-27T04:46:15.329Z,3.65
2022-07-27T04:48:49.517Z,3.92
2022-07-27T04:51:18.157Z,4.10
2022-07-27T04:53:54.103Z,5.60
2022-07-27T04:56:26.700Z,4.15
2022-07-27T04:58:54.803Z,4.15
2022-07-27T05:01:23.177Z,3.60
2022-07-27T05:03:50.347Z,3.95
2022-07-27T05:06:17.489Z,5.07
2022-07-27T05:08:44.613Z,2.95
2022-07-27T05:11:11.827Z,3.38
2022-07-27T05:13:40.631Z,4.15
2022-07-27T05:16:11.826Z,3.70
2022-07-27T05:18:39.261Z,4.20
2022-07-27T05:21:07.819Z,3.45
2022-07-27T05:23:34.871Z,3.70
2022-07-27T05:26:02.110Z,4.05
2022-07-27T05:28:29.184Z,3.88
2022-07-27T05:30:56.747Z,4.35
2022-07-27T05:33:23.626Z,3.80
2022-07-27T05:35:50.971Z,4.10
2022-07-27T05:38:17.915Z,4.03
2022-07-27T05:40:46.309Z,4.18
2022-07-27T05:43:13.985Z,3.72
2022-07-27T05:45:41.109Z,4.22
2022-07-27T05:48:08.830Z,4.18
2022-07-27T05:50:36.037Z,3.28
2022-07-27T05:53:03.760Z,4.22
2022-07-27T05:55:30.653Z,3.70
2022-07-27T05:57:57.590Z,4.25
2022-07-27T06:00:24.681Z,3.70
2022-07-27T06:02:51.876Z,4.05
2022-07-27T06:05:18.870Z,4.82
2022-07-27T06:08:02.974Z,3.72
2022-07-27T06:10:32.667Z,3.63
2022-07-27T06:13:00.610Z,4.80
2022-07-27T06:15:27.721Z,3.65
2022-07-27T06:17:55.123Z,3.75
2022-07-27T06:20:23.183Z,3.38
2022-07-27T06:23:00.420Z,3.35
2022-07-27T06:25:34.562Z,3.53
2022-07-27T06:28:03.727Z,3.67
2022-07-27T06:30:30.791Z,3.80
2022-07-27T06:32:58.724Z,4.03
2022-07-27T06:35:26.817Z,3.45
2022-07-27T06:37:54.202Z,3.45
2022-07-27T06:40:21.529Z,2.55
2022-07-27T06:42:48.668Z,3.88
2022-07-27T06:45:16.560Z,3.40
2022-07-27T06:47:49.406Z,3.63
2022-07-27T06:50:18.452Z,3.35
2022-07-27T06:52:45.471Z,3.05
2022-07-27T06:55:12.965Z,3.35
2022-07-27T06:57:40.221Z,3.05
2022-07-27T07:00:08.108Z,3.25
2022-07-27T07:02:35.031Z,3.65
2022-07-27T07:05:01.909Z,3.33
2022-07-27T07:07:28.931Z,3.33
2022-07-27T07:09:55.777Z,3.50
2022-07-27T07:12:22.782Z,3.40
2022-07-27T07:14:49.728Z,3.10
2022-07-27T07:17:16.740Z,3.25
2022-07-27T07:19:46.680Z,3.28
2022-07-27T07:22:13.631Z,3.08
2022-07-27T07:24:40.806Z,2.85
2022-07-27T07:27:07.756Z,2.45
2022-07-27T07:29:34.691Z,4.72
2022-07-27T07:32:01.574Z,3.58
2022-07-27T07:34:29.658Z,3.20
2022-07-27T07:36:56.644Z,3.03
2022-07-27T07:39:27.816Z,2.78
2022-07-27T07:41:58.044Z,4.03
2022-07-27T07:44:25.074Z,3.38
2022-07-27T07:46:52.244Z,3.10
2022-07-27T07:49:37.746Z,3.80
2022-07-27T07:52:06.275Z,4.18
2022-07-27T07:54:33.323Z,2.85
2022-07-27T07:57:00.478Z,3.33
2022-07-27T07:59:27.399Z,3.00
2022-07-27T08:01:54.479Z,3.10
2022-07-27T08:04:21.487Z,3.03
2022-07-27T08:06:48.378Z,3.80
2022-07-27T08:09:17.137Z,3.15
2022-07-27T08:11:44.933Z,3.10
2022-07-27T08:14:11.965Z,3.13
2022-07-27T08:16:39.160Z,2.78
2022-07-27T08:19:06.330Z,2.75
2022-07-27T08:21:36.503Z,2.92
2022-07-27T08:24:03.880Z,2.75
2022-07-27T08:26:30.794Z,3.03
2022-07-27T08:28:59.334Z,3.38
2022-07-27T08:31:50.921Z,3.65
2022-07-27T08:34:13.366Z,3.28
2022-07-27T08:36:40.360Z,3.50
2022-07-27T08:39:08.771Z,3.53
2022-07-27T08:41:42.261Z,4.05
2022-07-27T08:46:40.852Z,2.75
2022-07-27T08:49:08.849Z,2.70
2022-07-27T08:51:36.093Z,3.65
2022-07-27T08:54:03.214Z,2.78
2022-07-27T08:56:30.209Z,2.75
2022-07-27T08:58:57.733Z,3.20
2022-07-27T09:01:24.721Z,3.05
2022-07-27T09:03:51.912Z,3.60
2022-07-27T09:06:53.055Z,3.63
2022-07-27T09:09:22.284Z,3.50
2022-07-27T09:12:09.889Z,3.58
2022-07-27T09:14:38.608Z,3.45
2022-07-27T09:20:17.865Z,3.58
2022-07-27T09:22:54.964Z,3.45
2022-07-27T09:25:38.720Z,3.17
2022-07-27T09:28:09.524Z,3.45
2022-07-27T09:30:42.704Z,3.20
2022-07-27T09:33:09.849Z,3.13
2022-07-27T09:35:36.852Z,2.38
2022-07-27T09:38:18.780Z,3.42
2022-07-27T09:40:46.825Z,3.17
2022-07-27T09:46:07.653Z,3.35
2022-07-27T09:48:35.781Z,3.70
2022-07-27T09:51:37.439Z,3.42
2022-07-27T09:53:54.507Z,3.47
2022-07-27T09:56:29.679Z,3.80
2022-07-27T09:58:59.411Z,2.85
2022-07-27T10:01:35.212Z,3.60
2022-07-27T10:04:07.321Z,3.30
2022-07-27T10:06:53.480Z,3.28
2022-07-27T10:09:21.455Z,3.58
2022-07-27T10:11:49.580Z,3.65
2022-07-27T10:14:16.715Z,3.17
2022-07-27T10:16:48.474Z,3.58
2022-07-27T10:19:45.081Z,3.80
2022-07-27T10:22:12.084Z,3.72
2022-07-27T10:24:39.225Z,3.55
2022-07-27T10:27:20.312Z,4.45
2022-07-27T10:29:49.669Z,4.25
2022-07-27T10:32:33.263Z,4.28
2022-07-27T10:35:01.647Z,3.53
2022-07-27T10:37:31.414Z,4.25
2022-07-27T10:40:39.412Z,3.78
2022-07-27T10:43:09.436Z,3.28
2022-07-27T10:46:00.207Z,3.58
2022-07-27T10:48:48.283Z,3.47
2022-07-27T10:51:17.145Z,2.35
2022-07-27T10:56:47.491Z,2.50
2022-07-27T10:59:14.642Z,2.75
2022-07-27T11:01:58.501Z,2.17
2022-07-27T11:04:26.341Z,2.58
2022-07-27T11:07:23.890Z,1.95
2022-07-27T11:10:03.582Z,2.53
2022-07-27T11:12:31.531Z,2.38
2022-07-27T11:15:01.037Z,2.90
2022-07-27T11:17:54.191Z,2.92
2022-07-27T11:20:22.783Z,2.58
2022-07-27T11:25:36.669Z,2.75
2022-07-27T11:28:09.973Z,2.63
2022-07-27T11:30:37.363Z,3.25
2022-07-27T11:33:05.467Z,2.97
2022-07-27T11:35:32.549Z,3.45
2022-07-27T11:38:05.448Z,3.30
2022-07-27T11:40:58.092Z,3.17
2022-07-27T11:43:45.409Z,3.50
2022-07-27T11:46:26.651Z,4.30
2022-07-27T11:49:13.352Z,4.68
2022-07-27T11:51:43.484Z,3.63
2022-07-27T11:54:25.167Z,3.67
2022-07-27T11:57:10.069Z,4.25
2022-07-27T11:59:39.080Z,3.63
2022-07-27T12:02:08.866Z,4.35
2022-07-27T12:04:38.867Z,3.72
2022-07-27T12:07:11.217Z,3.72
2022-07-27T12:09:45.438Z,3.70
2022-07-27T12:12:15.818Z,3.55
2022-07-27T12:14:46.179Z,4.05
2022-07-27T12:17:15.623Z,4.00
2022-07-27T12:19:43.313Z,4.10
2022-07-27T12:22:10.435Z,4.20
2022-07-27T12:24:39.988Z,4.22
2022-07-27T12:27:15.566Z,3.72
2022-07-27T12:30:16.739Z,4.22
2022-07-27T12:32:46.013Z,3.55
2022-07-27T12:35:44.102Z,4.05
2022-07-27T12:38:13.762Z,3.80
2022-07-27T12:40:46.678Z,3.53
2022-07-27T12:43:18.004Z,3.75
2022-07-27T12:45:46.991Z,4.30
2022-07-27T12:48:16.601Z,3.67
2022-07-27T12:50:46.733Z,3.70
2022-07-27T12:53:15.965Z,3.70
2022-07-27T12:55:44.134Z,4.28
2022-07-27T12:58:14.362Z,3.70
2022-07-27T13:00:41.958Z,3.50
2022-07-27T13:03:09.328Z,3.67
2022-07-27T13:05:36.765Z,3.50
2022-07-27T13:08:04.902Z,3.88
2022-07-27T13:10:32.367Z,3.28
2022-07-27T13:12:59.441Z,4.25
2022-07-27T13:15:26.674Z,3.15
2022-07-27T13:17:53.601Z,3.40
2022-07-27T13:20:20.919Z,3.55
2022-07-27T13:22:47.973Z,3.35
2022-07-27T13:25:17.616Z,3.88
2022-07-27T13:27:46.799Z,3.20
2022-07-27T13:30:16.041Z,3.45
2022-07-27T13:32:43.718Z,3.10
2022-07-27T13:35:12.754Z,2.92
2022-07-27T13:37:40.173Z,3.65
2022-07-27T13:40:08.924Z,3.63
2022-07-27T13:42:36.042Z,2.72
2022-07-27T13:45:09.865Z,3.33
2022-07-27T13:47:39.474Z,3.63
2022-07-27T13:50:16.712Z,3.30
2022-07-27T13:52:44.831Z,3.40
2022-07-27T13:55:14.495Z,4.18
2022-07-27T13:57:41.572Z,3.35
2022-07-27T14:00:09.084Z,3.88
2022-07-27T14:02:36.011Z,3.65
2022-07-27T14:05:04.310Z,4.40
2022-07-27T14:07:33.397Z,3.60
2022-07-27T14:10:19.052Z,5.03
2022-07-27T14:12:45.987Z,3.72
2022-07-27T14:15:13.687Z,3.55
2022-07-27T14:17:40.780Z,4.32
2022-07-27T14:20:08.769Z,3.90
2022-07-27T14:22:35.866Z,4.15
2022-07-27T14:25:02.962Z,4.15
2022-07-27T14:27:33.707Z,4.05
2022-07-27T14:30:09.747Z,3.97
2022-07-27T14:32:36.726Z,3.78
2022-07-27T14:35:05.163Z,3.83
2022-07-27T14:37:34.336Z,4.22
2022-07-27T14:40:02.142Z,4.18
2022-07-27T14:42:29.211Z,4.32
2022-07-27T14:44:56.676Z,3.90
2022-07-27T14:47:24.185Z,3.35
2022-07-27T14:49:51.367Z,4.65
2022-07-27T14:52:18.837Z,5.10
2022-07-27T14:54:47.454Z,3.72
2022-07-27T14:57:15.673Z,4.00
2022-07-27T15:15:00.496Z,4.47
2022-07-27T15:17:27.574Z,4.93
2022-07-27T15:19:54.532Z,4.15
2022-07-27T15:22:21.417Z,4.28
2022-07-27T15:24:52.922Z,3.60
2022-07-27T15:27:20.794Z,4.13
2022-07-27T15:29:47.762Z,4.20
2022-07-27T15:32:14.921Z,4.18
2022-07-27T15:34:43.714Z,5.00
2022-07-27T15:37:10.660Z,4.43
2022-07-27T15:39:39.479Z,4.00
2022-07-27T15:42:08.419Z,4.30
2022-07-27T15:44:37.162Z,5.28
2022-07-27T15:47:04.644Z,4.25
2022-07-27T15:49:31.625Z,4.65
2022-07-27T15:51:58.982Z,4.85
2022-07-27T15:54:27.992Z,4.38
2022-07-27T15:56:57.131Z,3.90
2022-07-27T15:59:24.042Z,4.38
2022-07-27T16:01:51.037Z,4.78
2022-07-27T16:04:20.677Z,4.38
2022-07-27T16:06:47.639Z,4.28
2022-07-27T16:09:14.706Z,4.13
2022-07-27T16:11:42.051Z,4.32
2022-07-27T16:14:09.065Z,3.92
2022-07-27T16:16:35.962Z,4.53
2022-07-27T16:19:13.720Z,3.95
2022-07-27T16:21:54.774Z,4.75
2022-07-27T16:24:24.209Z,4.20
2022-07-27T16:26:51.131Z,4.70
2022-07-27T16:29:18.371Z,4.10
2022-07-27T16:31:45.425Z,4.45
2022-07-27T16:34:12.439Z,4.20
2022-07-27T16:36:39.530Z,4.85
2022-07-27T16:39:06.552Z,4.35
2022-07-27T16:41:33.593Z,4.05
2022-07-27T16:44:00.685Z,4.22
2022-07-27T16:46:27.749Z,4.55
2022-07-27T16:48:54.824Z,4.07
2022-07-27T16:51:21.876Z,3.95
2022-07-27T16:53:48.784Z,3.80
2022-07-27T16:56:16.425Z,4.35
2022-07-27T16:58:44.588Z,4.60
2022-07-27T17:01:21.740Z,3.20
2022-07-27T17:03:54.078Z,5.18
2022-07-27T17:06:21.131Z,3.95
2022-07-27T17:08:48.649Z,3.72
2022-07-27T17:11:20.869Z,3.63
2022-07-27T17:13:49.776Z,4.55
2022-07-27T17:16:17.668Z,4.93
2022-07-27T17:18:44.795Z,3.55
2022-07-27T17:21:14.801Z,4.15
2022-07-27T17:23:42.536Z,3.78
2022-07-27T17:26:12.365Z,3.70
2022-07-27T17:28:40.285Z,4.20
2022-07-27T17:31:10.562Z,4.28
2022-07-27T17:33:38.320Z,3.97
2022-07-27T17:36:08.525Z,4.13
2022-07-27T17:38:40.894Z,4.07
2022-07-27T17:41:07.842Z,3.60
2022-07-27T17:43:38.821Z,4.25
2022-07-27T17:46:06.599Z,3.22
2022-07-27T17:48:35.441Z,3.95
2022-07-27T17:51:02.929Z,3.72
2022-07-27T17:53:30.086Z,3.83
2022-07-27T17:55:57.031Z,4.03
2022-07-27T17:58:29.446Z,3.83
2022-07-27T18:00:56.982Z,3.83
2022-07-27T18:03:23.951Z,3.53
2022-07-27T18:05:50.922Z,4.10
2022-07-27T18:08:17.998Z,3.42
2022-07-27T18:10:44.819Z,3.47
2022-07-27T18:13:11.749Z,3.83
2022-07-27T18:15:47.567Z,4.45
2022-07-27T18:18:15.545Z,3.85
2022-07-27T18:20:43.451Z,4.10
2022-07-27T18:23:10.687Z,4.20
2022-07-27T18:25:37.679Z,4.18
2022-07-27T18:28:05.122Z,4.20
2022-07-27T18:30:32.468Z,4.35
2022-07-27T18:32:59.438Z,3.88
2022-07-27T18:35:26.364Z,3.42
2022-07-27T18:37:53.311Z,4.53
2022-07-27T18:40:21.827Z,4.97
2022-07-27T18:42:48.814Z,4.03
2022-07-27T18:45:15.806Z,4.43
2022-07-27T18:47:49.277Z,4.35
2022-07-27T18:50:16.840Z,4.35
2022-07-27T18:52:43.775Z,4.53
2022-07-27T18:55:10.834Z,4.68
2022-07-27T18:57:38.138Z,4.00
2022-07-27T19:00:06.853Z,4.80
2022-07-27T19:02:38.931Z,4.20
2022-07-27T19:05:07.453Z,3.88
2022-07-27T19:07:37.359Z,4.57
2022-07-27T19:10:07.416Z,4.22
2022-07-27T19:12:34.423Z,5.78
2022-07-27T19:15:01.523Z,4.25
2022-07-27T19:17:28.483Z,4.68
2022-07-27T19:19:55.417Z,4.72
2022-07-27T19:22:22.315Z,4.25
2022-07-27T19:24:54.633Z,4.78
2022-07-27T19:27:22.278Z,4.32
2022-07-27T19:29:49.301Z,4.28
2022-07-27T19:32:16.965Z,4.00
2022-07-27T19:34:43.982Z,4.75
2022-07-27T19:37:12.533Z,4.38
2022-07-27T19:40:02.117Z,4.00
2022-07-27T19:42:27.230Z,4.43
2022-07-27T19:44:55.354Z,4.38
2022-07-27T19:47:22.304Z,4.60
2022-07-27T19:49:49.299Z,3.70
2022-07-27T19:52:16.290Z,4.75
2022-07-27T19:54:43.580Z,4.40
2022-07-27T19:57:11.717Z,4.20
2022-07-27T19:59:55.734Z,4.13
2022-07-27T20:02:25.167Z,4.40
2022-07-27T20:04:52.137Z,4.65
2022-07-27T20:07:19.094Z,5.45
2022-07-27T20:09:45.962Z,5.43
2022-07-27T20:12:12.974Z,4.43
2022-07-27T20:14:39.999Z,5.20
2022-07-27T20:17:07.093Z,4.60
2022-07-27T20:19:34.237Z,4.45
2022-07-27T20:22:01.608Z,4.97
2022-07-27T20:24:29.503Z,5.63
2022-07-27T20:26:57.293Z,5.00
2022-07-27T20:29:24.209Z,5.10
2022-07-27T20:31:54.588Z,5.22
2022-07-27T20:34:23.584Z,5.50
2022-07-27T20:36:50.711Z,5.88
2022-07-27T20:39:18.550Z,4.53
2022-07-27T20:41:46.056Z,5.05
2022-07-27T20:44:13.129Z,4.43
2022-07-27T20:46:40.083Z,4.70
2022-07-27T20:49:07.182Z,5.45
2022-07-27T20:51:34.309Z,4.22
2022-07-27T20:54:01.316Z,4.68
2022-07-27T20:56:28.214Z,4.35
2022-07-27T20:58:55.153Z,4.78
2022-07-27T21:01:22.069Z,4.55
2022-07-27T21:03:49.273Z,6.85
2022-07-27T21:06:16.412Z,5.32
2022-07-27T21:08:46.667Z,5.10
2022-07-27T21:11:14.412Z,4.40
2022-07-27T21:13:41.550Z,4.95
2022-07-27T21:16:08.775Z,5.80
2022-07-27T21:18:35.847Z,6.07
2022-07-27T21:21:02.899Z,4.65
2022-07-27T21:23:48.491Z,5.05
2022-07-27T21:26:18.166Z,4.78
2022-07-27T21:28:46.014Z,5.57
2022-07-27T21:31:13.283Z,5.22
2022-07-27T21:33:40.307Z,4.47
2022-07-27T21:36:07.758Z,5.35
2022-07-27T21:38:35.059Z,5.80
2022-07-27T21:41:01.953Z,5.18
2022-07-27T21:43:29.000Z,5.60
2022-07-27T21:45:55.963Z,5.80
2022-07-27T21:48:23.023Z,5.13
2022-07-27T21:50:50.120Z,5.32
2022-07-27T21:53:17.302Z,5.75
2022-07-27T21:55:44.222Z,6.10
2022-07-27T21:58:12.445Z,6.22
2022-07-27T22:00:39.901Z,5.57
2022-07-27T22:03:07.874Z,4.93
2022-07-27T22:05:35.724Z,5.65
2022-07-27T22:08:03.783Z,5.53
2022-07-27T22:10:32.003Z,4.90
2022-07-27T22:12:59.233Z,5.22
2022-07-27T22:15:27.117Z,5.35
2022-07-27T22:17:54.290Z,5.53
2022-07-27T22:20:22.281Z,5.65
2022-07-27T22:22:50.828Z,5.10
2022-07-27T22:25:18.921Z,5.20
2022-07-27T22:27:45.945Z,5.72
2022-07-27T22:30:12.888Z,5.20
2022-07-27T22:32:39.746Z,5.45
2022-07-27T22:35:07.301Z,5.95
2022-07-27T22:37:34.215Z,5.82
2022-07-27T22:40:01.055Z,4.85
2022-07-27T22:42:28.323Z,6.28
2022-07-27T22:44:55.235Z,4.60
2022-07-27T22:47:22.425Z,5.10
2022-07-27T22:49:49.626Z,4.45
2022-07-27T22:52:16.522Z,4.50
2022-07-27T22:54:43.514Z,5.40
2022-07-27T22:57:10.627Z,5.13
2022-07-27T22:59:37.684Z,5.20
2022-07-27T23:02:05.614Z,4.07
2022-07-27T23:04:32.651Z,4.70
2022-07-27T23:06:59.762Z,4.93
2022-07-27T23:09:26.780Z,5.50
2022-07-27T23:11:53.795Z,4.88
2022-07-27T23:14:20.905Z,4.57
2022-07-27T23:16:47.958Z,5.05
2022-07-27T23:19:14.949Z,4.97
2022-07-27T23:21:42.414Z,4.75
2022-07-27T23:24:10.941Z,4.82
2022-07-27T23:26:38.416Z,4.82
2022-07-27T23:29:05.370Z,5.10
2022-07-27T23:31:32.387Z,5.68
2022-07-27T23:33:59.555Z,4.90
2022-07-27T23:36:26.816Z,5.18
2022-07-27T23:38:53.876Z,5.38
2022-07-27T23:41:20.857Z,5.35
2022-07-27T23:43:47.777Z,5.15
2022-07-27T23:46:14.772Z,5.40
2022-07-27T23:48:41.911Z,5.45
2022-07-27T23:51:09.300Z,5.20
2022-07-27T23:53:36.902Z,5.15
2022-07-27T23:56:03.854Z,4.75
2022-07-27T23:58:30.843Z,5.20
